x

South Hecate Strait (46185) Wave Buoy

10:00pm - Fri 4th Sep 2015 All times are PDT. -7 hours from GMT.

  • Sig Wave height 2.3ft
  • Peak Period 13s
  • Wind
    7mph, 9mph gusts
  • Sea Temp 58°f
  • Air Temp 58°f
  • Sea Pressure 1017.4mb
  • South Hecate Strait
  • South Hecate Strait

More Historic Weather Station data

Upgrade to MSW Pro to gain access to the past 30 days of data for over 8000 Wavebouys and Weather Stations around the globe.

Join Pro

Comparision Forecast

View Surf forecast
   
Fri 09/04 10:00pm 2.5ft 13s 7 9 mph 1017.4mb 58f 58f
9:00pm 2.5ft 14s 9
mph
1017.6mb 58f 58f
8:00pm 2.5ft 14s 9
mph
1017.6mb 58f 58f
7:00pm 2.5ft 12s 7 9 mph 1017.7mb 60f 58f
6:00pm 2.5ft 14s 4 7 mph 1017.8mb 60f 58f
5:00pm 2.5ft 14s 2
mph
1018.1mb 60f 60f
4:00pm 2.5ft 14s 4 7 mph 1018.4mb 60f 59f
3:00pm 2.5ft 13s 2 4 mph 1018.6mb 59f 59f
2:00pm 2.5ft 12s 2
mph
1018.8mb 59f 58f
1:00pm 2.5ft 12s 2
mph
1019.1mb 58f 57f
12:00pm 2.5ft 13s 4
mph
1019.4mb 58f 56f
11:00am 2.5ft 13s 4
mph
1019.2mb 57f 56f
10:00am 2.5ft 13s 7
mph
1019.1mb 57f 56f
9:00am 2.5ft 14s 9 11 mph 1019mb 57f 56f
8:00am 2.5ft 14s 11 13 mph 1018.9mb 57f 56f
7:00am 3ft 13s 9 11 mph 1018.8mb 57f 56f
6:00am 2.5ft 13s 7 9 mph 1018.5mb 57f 56f
5:00am 2.5ft 12s 9
mph
1018.3mb 57f 55f
4:00am 2.5ft 14s 11 13 mph 1018mb 57f 56f
3:00am 2.5ft 12s 11 13 mph 1018.1mb 57f 57f
2:00am 3ft 13s 11 13 mph 1018.2mb 57f 57f
1:00am 3ft 12s 11 13 mph 1018.4mb 57f 57f
12:00am 3ft 14s 11 13 mph 1018.2mb 57f 57f
Thu 09/03 11:00pm 3ft 14s 13 16 mph 1018.1mb 57f 57f
10:00pm 3ft 14s 13 16 mph 1018.2mb 58f 57f
9:00pm 3ft 13s 13 16 mph 1017.9mb 57f 57f
8:00pm 3ft 14s 16 18 mph 1017.4mb 58f 56f
7:00pm 3ft 14s 16 18 mph 1017.1mb 58f 57f
6:00pm 2.5ft 14s 16 18 mph 1017.1mb 58f 56f
5:00pm 2.5ft 14s 13 16 mph 1017mb 59f 56f
4:00pm 2.5ft 13s 11 13 mph 1017.2mb 59f 56f
3:00pm 2.5ft 14s 9 13 mph 1017.2mb 59f 56f
2:00pm 2.5ft 14s 9 11 mph 1017.2mb 59f 55f
1:00pm 2.5ft 14s 4 7 mph 1017.4mb 58f 54f
12:00pm 2.5ft 14s 7 9 mph 1017.2mb 58f 53f
11:00am 2.5ft 14s 7 9 mph 1017mb 58f 53f
10:00am 2.5ft 14s 4 7 mph 1016.8mb 58f 54f
9:00am 2.5ft 15s 2 4 mph 1016.4mb 57f 55f
8:00am 2.5ft 15s 4 7 mph 1015.9mb 57f 54f
7:00am 2.5ft 15s 4 7 mph 1015.4mb 57f 53f
6:00am 2.5ft 15s 7 9 mph 1015.1mb 57f 54f
5:00am 3.5ft 15s 4 7 mph 1014.7mb 57f 54f
4:00am 3.5ft 9s 4 7 mph 1014.4mb 57f 54f
3:00am 3.5ft 10s 4
mph
1014.1mb 57f 54f
2:00am 3ft 10s 2 4 mph 1014mb 57f 54f
1:00am 3ft 10s 2
mph
1013.6mb 57f 54f
12:00am 2.5ft 11s 4
mph
1013.4mb 57f 54f
Wed 09/02 11:00pm 2.5ft 11s 4
mph
1013.3mb 57f 54f
10:00pm 2.5ft 11s 2 4 mph 1013mb 57f 53f
9:00pm 2.5ft 11s 4
mph
1012.4mb 58f 53f
8:00pm 2.5ft 15s 2
mph
1011.9mb 58f 53f
7:00pm 2.5ft 11s 2
mph
1011.5mb 58f 54f
6:00pm 2.5ft 15s 2 4 mph 1011.2mb 58f 53f
5:00pm 3.5ft 8s 2
mph
1010.7mb 59f 53f
4:00pm 4ft 10s 2 4 mph 1010.2mb 58f 53f
3:00pm 4.5ft 10s 4 7 mph 1009.9mb 58f 53f
2:00pm 3.5ft 11s 4 7 mph 1009.5mb 58f 52f
1:00pm 3.5ft 9s 4 7 mph 1009.2mb 58f 52f
12:00pm 3.5ft 11s 7
mph
1008.8mb 58f 52f
11:00am 3ft 12s 7 11 mph 1008.1mb 57f 51f
10:00am 3ft 12s 7 9 mph 1007.7mb 57f 53f
9:00am 3ft 14s 7 9 mph 1007mb 58f 52f
8:00am 3ft 13s 13 16 mph 1006.3mb 58f 51f
7:00am 3.5ft 14s 13 18 mph 1005.6mb 58f 54f
6:00am 3.5ft 11s 13 18 mph 1004.8mb 58f 53f
5:00am 3.5ft 12s 13 16 mph 1004.3mb 58f 52f
4:00am 4ft 11s 13 18 mph 1003.9mb 58f 52f
3:00am 5ft 11s 13 18 mph 1003.2mb 58f 51f
2:00am 4.5ft 11s 13 16 mph 1002.8mb 58f 51f
1:00am 4ft 9s 9 13 mph 1002.2mb 58f 51f
12:00am 4.5ft 10s 9 13 mph 1001.9mb 58f 51f
Tue 09/01 11:00pm 4ft 13s 9 13 mph 1001.6mb 58f 52f
10:00pm 3.5ft 14s 9 11 mph 1001.1mb 58f 51f
9:00pm 4ft 14s 4 7 mph 1000.8mb 57f 51f
8:00pm 3.5ft 13s 2 4 mph 1000.1mb 58f 51f
7:00pm 4ft 8s 7 11 mph 999.8mb 58f 52f
6:00pm 4ft 8s 11 18 mph 999.2mb 59f 54f
5:00pm 4.5ft 14s 11 13 mph 999.1mb 59f 55f
4:00pm 4.5ft 14s 13 18 mph 999.1mb 59f 55f
3:00pm 5.5ft 9s 9 13 mph 999.5mb 59f 55f
2:00pm 6ft 7s 13 16 mph 999.6mb 59f 55f
1:00pm 6ft 11s 16 18 mph 999.4mb 59f 55f
12:00pm 6ft 6s 16 20 mph 999.3mb 59f 54f
11:00am 6ft 6s 20 27 mph 998.7mb 59f 54f
10:00am 6ft 5s 27 29 mph 997.7mb 58f 54f
9:00am 5.5ft 5s 25 34 mph 997.4mb 58f 55f
8:00am 5ft 5s 25 29 mph 997.7mb 59f 55f
7:00am 5ft 5s 20 25 mph 998.4mb 59f 55f